Time;durP1;ratioP1;P1;durP2;ratioP2;P2;SDS_P1;SDS_P2;PMS_P1;PMS_P2;Temp;Humidity;BMP_temperature;BMP_pressure;BME280_temperature;BME280_humidity;BME280_pressure;Samples;Min_cycle;Max_cycle;Signal;HPM_P1;HPM_P2
2022/12/14 00:01:39;;;;;;;22.67;14.70;;;;;;;-5.51;100.00;98236.81;5047659;28;20041;-60
2022/12/14 00:04:24;;;;;;;23.92;14.82;;;;;;;-5.51;100.00;98241.06;5039136;28;20045;-61
2022/12/14 00:07:09;;;;;;;28.20;16.92;;;;;;;-5.58;100.00;98245.41;5049646;28;20052;-60
2022/12/14 00:09:53;;;;;;;22.45;14.02;;;;;;;-5.54;100.00;98236.00;5042271;28;20048;-61
2022/12/14 00:12:38;;;;;;;26.27;15.80;;;;;;;-5.59;100.00;98236.91;5047902;28;20149;-61
2022/12/14 00:15:22;;;;;;;23.05;14.63;;;;;;;-5.72;100.00;98254.06;5048773;28;20037;-60
2022/12/14 00:18:08;;;;;;;26.15;15.75;;;;;;;-5.48;100.00;98254.66;5048775;28;20045;-61
2022/12/14 00:20:52;;;;;;;24.58;14.90;;;;;;;-5.65;100.00;98254.84;5043762;28;20053;-60
2022/12/14 00:23:39;;;;;;;25.73;15.45;;;;;;;-5.63;100.00;98236.97;5048203;28;20071;-60
2022/12/14 00:26:26;;;;;;;26.60;15.35;;;;;;;-5.81;100.00;98249.06;5048914;28;20059;-61
2022/12/14 00:29:11;;;;;;;26.02;16.75;;;;;;;-5.75;100.00;98248.13;5048843;28;20135;-60
2022/12/14 00:31:55;;;;;;;25.67;14.15;;;;;;;-5.57;100.00;98245.41;5044825;28;20135;-61
2022/12/14 00:34:40;;;;;;;28.13;15.13;;;;;;;-5.73;100.00;98243.88;5048894;28;20045;-60
2022/12/14 00:37:25;;;;;;;23.90;14.75;;;;;;;-5.47;100.00;98232.53;5047851;28;20072;-60
2022/12/14 00:40:11;;;;;;;25.60;15.93;;;;;;;-5.57;100.00;98224.97;5048010;28;20051;-61
2022/12/14 00:42:55;;;;;;;23.75;15.25;;;;;;;-5.77;100.00;98227.75;5046624;28;20048;-60
2022/12/14 00:45:43;;;;;;;22.73;14.40;;;;;;;-5.72;100.00;98226.00;5042574;28;20804;-61
2022/12/14 00:48:28;;;;;;;24.27;15.07;;;;;;;-5.70;100.00;98229.38;5045114;28;20496;-60
2022/12/14 00:51:13;;;;;;;23.77;14.55;;;;;;;-5.65;100.00;98226.78;5047768;28;20120;-60
2022/12/14 00:53:58;;;;;;;26.63;14.95;;;;;;;-5.69;100.00;98220.00;5048454;28;20124;-61
2022/12/14 00:56:42;;;;;;;25.33;15.73;;;;;;;-5.63;100.00;98214.81;5048452;28;20067;-61
2022/12/14 00:59:27;;;;;;;22.88;14.13;;;;;;;-5.72;100.00;98227.69;5047774;28;20048;-61
2022/12/14 01:02:11;;;;;;;24.17;14.15;;;;;;;-5.49;100.00;98231.69;5047450;28;20150;-62
2022/12/14 01:04:56;;;;;;;23.23;14.63;;;;;;;-5.44;100.00;98237.59;5047646;28;20045;-60
2022/12/14 01:07:42;;;;;;;24.40;15.02;;;;;;;-5.55;100.00;98232.63;5047931;28;20041;-62
2022/12/14 01:10:27;;;;;;;25.20;15.73;;;;;;;-5.69;100.00;98240.41;5047703;28;20040;-61
2022/12/14 01:13:11;;;;;;;25.80;14.30;;;;;;;-5.51;100.00;98228.28;5048015;28;20041;-60
2022/12/14 01:16:01;;;;;;;25.48;15.32;;;;;;;-5.63;100.00;98222.47;5047790;28;20120;-60
2022/12/14 01:18:46;;;;;;;25.58;15.90;;;;;;;-5.65;100.00;98215.69;5048189;28;20388;-62
2022/12/14 01:21:31;;;;;;;24.02;15.77;;;;;;;-5.57;100.00;98209.66;5047702;28;20048;-62
2022/12/14 01:24:15;;;;;;;28.13;15.57;;;;;;;-5.46;100.00;98211.22;5047999;28;20140;-60
2022/12/14 01:27:00;;;;;;;23.15;14.45;;;;;;;-5.58;100.00;98202.84;5048222;28;20053;-61
2022/12/14 01:29:44;;;;;;;23.33;15.20;;;;;;;-5.64;100.00;98205.47;5046895;28;20472;-61
2022/12/14 01:32:29;;;;;;;24.13;15.35;;;;;;;-5.60;100.00;98196.91;5046038;28;20071;-61
2022/12/14 01:35:14;;;;;;;24.75;14.25;;;;;;;-5.68;100.00;98188.50;5047982;28;20087;-61
2022/12/14 01:37:59;;;;;;;25.05;16.17;;;;;;;-5.78;100.00;98186.91;5046037;28;20254;-61
2022/12/14 01:40:43;;;;;;;24.45;14.95;;;;;;;-5.75;100.00;98181.78;5046199;28;20072;-60
2022/12/14 01:43:51;;;;;;;24.15;15.95;;;;;;;-5.74;100.00;98180.91;5050036;28;20053;-61
2022/12/14 01:46:39;;;;;;;25.92;15.23;;;;;;;-5.64;100.00;98190.16;5048131;28;20396;-61
2022/12/14 01:49:29;;;;;;;27.90;15.63;;;;;;;-5.71;100.00;98185.97;5051809;28;20075;-61
2022/12/14 01:52:39;;;;;;;25.30;15.82;;;;;;;-5.52;100.00;98180.66;5050748;28;20120;-61
2022/12/14 01:55:37;;;;;;;24.95;15.65;;;;;;;-5.63;100.00;98175.69;5051099;28;20056;-61
2022/12/14 01:58:25;;;;;;;24.20;14.95;;;;;;;-5.66;100.00;98171.44;5043189;28;20064;-61
2022/12/14 02:01:10;;;;;;;23.52;14.55;;;;;;;-5.48;100.00;98177.19;5032873;28;20045;-60
2022/12/14 02:03:55;;;;;;;22.50;15.18;;;;;;;-5.43;100.00;98172.88;5048489;28;20503;-60
2022/12/14 02:06:42;;;;;;;23.98;14.65;;;;;;;-5.50;100.00;98172.09;5051896;28;20045;-60
2022/12/14 02:09:32;;;;;;;21.33;13.75;;;;;;;-5.55;100.00;98156.03;5051178;28;20069;-61
2022/12/14 02:12:30;;;;;;;25.00;15.63;;;;;;;-5.63;100.00;98162.94;5051072;28;20139;-61
2022/12/14 02:15:15;;;;;;;25.90;14.95;;;;;;;-5.56;100.00;98157.72;5051071;28;20056;-60
2022/12/14 02:18:02;;;;;;;26.38;16.42;;;;;;;-5.43;100.00;98144.78;5048845;28;20094;-60
2022/12/14 02:21:16;;;;;;;25.15;15.50;;;;;;;-5.61;100.00;98151.81;5050588;28;20171;-60
2022/12/14 02:24:27;;;;;;;24.85;14.77;;;;;;;-5.39;100.00;98140.47;5044220;28;20037;-60
2022/12/14 02:27:44;;;;;;;24.40;15.73;;;;;;;-5.46;100.00;98137.16;5048592;28;20037;-59
2022/12/14 02:30:36;;;;;;;23.10;14.35;;;;;;;-5.36;100.00;98138.72;5042181;28;20516;-60
2022/12/14 02:33:58;;;;;;;24.58;15.63;;;;;;;-5.39;100.00;98114.94;5049447;28;20041;-61
2022/12/14 02:37:01;;;;;;;22.83;14.18;;;;;;;-5.39;100.00;98118.34;5002252;28;20045;-60
2022/12/14 02:40:14;;;;;;;23.88;14.88;;;;;;;-5.36;100.00;98117.44;4993635;28;20385;-61
2022/12/14 02:43:26;;;;;;;25.52;14.88;;;;;;;-5.43;100.00;98121.78;5007844;28;20095;-60
2022/12/14 02:46:28;;;;;;;23.88;14.88;;;;;;;-5.26;100.00;98124.13;5007174;28;20087;-60
2022/12/14 02:49:27;;;;;;;24.25;15.30;;;;;;;-5.40;100.00;98119.19;5008875;28;20045;-60
2022/12/14 02:52:21;;;;;;;22.40;15.10;;;;;;;-5.29;100.00;98128.44;5008055;28;20058;-61
2022/12/14 02:55:15;;;;;;;24.27;14.98;;;;;;;-5.31;100.00;98118.22;5007672;28;20049;-61
2022/12/14 02:58:10;;;;;;;22.95;15.60;;;;;;;-5.16;100.00;98109.50;5007820;28;20054;-61
2022/12/14 03:00:55;;;;;;;26.38;16.02;;;;;;;-5.15;100.00;98103.53;5007529;28;20612;-60
2022/12/14 03:03:41;;;;;;;24.00;14.65;;;;;;;-5.06;100.00;98107.66;4987177;28;20111;-61
2022/12/14 03:06:26;;;;;;;23.70;14.77;;;;;;;-4.98;100.00;98110.09;5008466;28;20132;-60
2022/12/14 03:09:16;;;;;;;22.58;14.05;;;;;;;-4.94;100.00;98101.50;5008217;28;20115;-61
2022/12/14 03:12:08;;;;;;;23.23;15.23;;;;;;;-4.76;100.00;98115.69;5045823;28;20156;-60
2022/12/14 03:14:54;;;;;;;24.42;14.25;;;;;;;-4.88;100.00;98093.72;5049891;28;20037;-60
2022/12/14 03:17:40;;;;;;;25.23;15.60;;;;;;;-5.02;100.00;98101.63;5045988;28;20056;-60
2022/12/14 03:20:29;;;;;;;21.88;14.57;;;;;;;-5.09;100.00;98100.88;5049419;28;20070;-61
2022/12/14 03:23:20;;;;;;;23.45;14.73;;;;;;;-5.06;100.00;98107.66;5046295;28;20048;-60
2022/12/14 03:26:26;;;;;;;23.88;14.55;;;;;;;-5.02;100.00;98090.53;5048884;28;20045;-61
2022/12/14 03:29:36;;;;;;;23.13;14.73;;;;;;;-5.09;100.00;98089.78;5043875;28;20689;-61
2022/12/14 03:32:24;;;;;;;22.42;14.38;;;;;;;-5.06;100.00;98087.22;5058287;28;20037;-61
2022/12/14 03:35:15;;;;;;;24.10;14.55;;;;;;;-5.04;100.00;98067.56;5046324;28;20045;-61
2022/12/14 03:38:16;;;;;;;26.33;15.60;;;;;;;-4.94;100.00;98081.03;5048631;28;20507;-60
2022/12/14 03:41:09;;;;;;;22.38;11.77;;;;;;;-5.00;100.00;98076.03;5043869;28;20151;-60
2022/12/14 03:44:05;;;;;;;19.30;11.02;;;;;;;-5.05;100.00;98076.13;5049147;28;20044;-60
2022/12/14 03:47:02;;;;;;;22.88;11.70;;;;;;;-5.15;100.00;98070.31;5048419;28;20057;-61
2022/12/14 03:49:50;;;;;;;24.05;15.07;;;;;;;-5.13;100.00;98060.91;5043524;28;20045;-61
2022/12/14 03:52:41;;;;;;;25.52;15.60;;;;;;;-5.14;100.00;98053.28;5042034;28;20491;-61
2022/12/14 03:55:46;;;;;;;25.25;16.17;;;;;;;-5.14;100.00;98036.22;5049467;28;20087;-60
2022/12/14 03:59:08;;;;;;;23.70;10.98;;;;;;;-5.14;100.00;98026.00;5048587;28;20056;-61
2022/12/14 04:02:09;;;;;;;17.23;10.07;;;;;;;-5.15;100.00;98033.69;5042814;28;20037;-61
2022/12/14 04:05:12;;;;;;;24.63;14.27;;;;;;;-5.03;100.00;98050.53;5048878;28;20051;-61
2022/12/14 04:07:57;;;;;;;25.23;11.75;;;;;;;-5.07;100.00;98035.25;5044790;28;20041;-61
2022/12/14 04:20:56;;;;;;;22.02;10.82;;;;;;;-5.00;100.00;98041.13;5004403;28;20469;-61
2022/12/14 04:27:00;;;;;;;20.88;11.02;;;;;;;-4.90;100.00;98031.59;4991835;28;20125;-59
2022/12/14 04:29:56;;;;;;;18.73;10.30;;;;;;;-4.97;100.00;98017.22;5002791;28;20070;-60
2022/12/14 04:32:47;;;;;;;21.83;10.57;;;;;;;-4.91;100.00;98014.53;4999700;28;20045;-60
2022/12/14 04:35:39;;;;;;;22.90;14.73;;;;;;;-4.88;100.00;98000.88;4993225;28;20041;-60
2022/12/14 04:38:31;;;;;;;22.88;10.75;;;;;;;-4.87;100.00;98003.41;4996937;28;20184;-60
2022/12/14 04:41:22;;;;;;;23.25;10.80;;;;;;;-4.93;100.00;97988.19;4997103;28;20065;-61
2022/12/14 04:44:18;;;;;;;21.85;14.18;;;;;;;-4.76;100.00;97994.69;5003179;28;20092;-60
2022/12/14 04:47:07;;;;;;;24.30;14.18;;;;;;;-4.79;100.00;97987.06;4999062;28;20049;-60
2022/12/14 04:49:59;;;;;;;21.52;11.20;;;;;;;-4.75;100.00;97983.59;5045685;28;20128;-61
2022/12/14 04:52:46;;;;;;;;;;;;;;;-4.86;100.00;97982.09;5048804;28;20060;-61
2022/12/14 04:55:50;;;;;;;25.27;14.63;;;;;;;-4.75;100.00;97988.72;5047999;28;19924;-61
2022/12/14 04:58:35;;;;;;;25.23;14.65;;;;;;;-4.82;100.00;98001.63;5046273;28;20045;-61
2022/12/14 05:01:34;;;;;;;23.30;11.93;;;;;;;-4.69;100.00;98006.50;5046716;28;20574;-60
2022/12/14 05:04:54;;;;;;;21.08;11.40;;;;;;;-4.72;100.00;97996.31;5047235;28;20049;-60
2022/12/14 05:07:59;;;;;;;20.02;11.15;;;;;;;-4.71;100.00;97998.00;5038679;28;20045;-60
2022/12/14 05:10:48;;;;;;;23.10;11.32;;;;;;;-4.60;100.00;97990.13;5047889;28;20065;-61
2022/12/14 05:13:59;;;;;;;22.30;11.10;;;;;;;-4.64;100.00;97978.28;5040625;28;20052;-60
2022/12/14 05:16:43;;;;;;;27.52;16.48;;;;;;;-4.67;100.00;97963.00;5047502;28;20048;-62
2022/12/14 05:19:28;;;;;;;25.65;15.60;;;;;;;-4.72;100.00;97957.97;5048371;28;20049;-61
2022/12/14 05:22:12;;;;;;;25.85;15.88;;;;;;;-4.74;100.00;97962.28;5053103;28;20055;-62
2022/12/14 05:25:00;;;;;;;24.77;15.88;;;;;;;-4.74;100.00;97949.50;5041386;28;20079;-60
2022/12/14 05:27:45;;;;;;;25.17;15.07;;;;;;;-4.72;100.00;97948.56;5030166;28;20045;-60
2022/12/14 05:30:30;;;;;;;25.98;15.98;;;;;;;-4.77;100.00;97926.53;5048053;28;20098;-61
2022/12/14 05:33:19;;;;;;;26.92;16.42;;;;;;;-4.68;100.00;97921.25;5045001;28;20055;-60
2022/12/14 05:36:04;;;;;;;25.33;15.57;;;;;;;-4.74;100.00;97913.69;5047838;28;20133;-61
2022/12/14 05:38:48;;;;;;;25.75;13.98;;;;;;;-4.82;100.00;97911.31;5047018;28;20522;-61
2022/12/14 05:41:34;;;;;;;25.77;15.98;;;;;;;-4.39;100.00;97924.09;5043171;28;20400;-60
2022/12/14 05:44:22;;;;;;;20.88;11.32;;;;;;;-4.16;100.00;97944.03;5044850;28;20048;-61
2022/12/14 05:47:09;;;;;;;23.58;14.85;;;;;;;-4.42;100.00;97954.84;5047550;28;20041;-61
2022/12/14 05:49:57;;;;;;;23.55;15.18;;;;;;;-4.52;100.00;97946.53;5048004;28;20106;-60
2022/12/14 05:52:42;;;;;;;25.40;13.30;;;;;;;-4.34;100.00;97963.22;5047215;28;20091;-60
2022/12/14 05:55:27;;;;;;;31.40;17.95;;;;;;;-4.39;100.00;97954.78;5045454;28;20480;-61
2022/12/14 05:58:11;;;;;;;27.90;17.45;;;;;;;-4.33;100.00;97960.63;5047876;28;20036;-60
2022/12/14 06:01:01;;;;;;;30.33;17.77;;;;;;;-4.35;100.00;97941.91;5040960;28;20049;-63
2022/12/14 06:03:46;;;;;;;29.77;17.33;;;;;;;-4.34;100.00;97952.97;5046816;28;20097;-60
2022/12/14 06:06:32;;;;;;;28.38;18.30;;;;;;;-4.36;100.00;97954.72;5041623;28;20045;-61
2022/12/14 06:09:18;;;;;;;28.83;18.23;;;;;;;-4.39;100.00;97947.94;5060364;28;20076;-62
2022/12/14 06:12:06;;;;;;;28.80;17.08;;;;;;;-4.64;100.00;97940.78;5047757;28;20076;-62
2022/12/14 06:14:52;;;;;;;28.17;17.92;;;;;;;-4.62;100.00;97945.88;5024591;28;20045;-61
2022/12/14 06:17:49;;;;;;;30.85;18.42;;;;;;;-4.71;100.00;97932.38;5044133;28;20388;-63
2022/12/14 06:20:37;;;;;;;29.23;18.05;;;;;;;-4.64;100.00;97953.56;5015513;28;20049;-62
2022/12/14 06:23:22;;;;;;;29.15;17.98;;;;;;;-4.71;100.00;97952.84;5031297;28;20045;-61
2022/12/14 06:26:11;;;;;;;29.65;17.95;;;;;;;-4.48;100.00;97960.91;5041765;28;20053;-61
2022/12/14 06:29:08;;;;;;;30.25;18.42;;;;;;;-4.61;100.00;97962.88;5047176;28;20061;-64
2022/12/14 06:31:53;;;;;;;33.65;18.73;;;;;;;-4.50;100.00;97967.78;5044911;28;20048;-63
2022/12/14 06:34:38;;;;;;;29.83;18.45;;;;;;;-4.30;100.00;97979.31;5044124;28;20140;-63
2022/12/14 06:37:23;;;;;;;30.08;19.02;;;;;;;-4.50;100.00;97975.44;5035434;28;20441;-63
2022/12/14 06:40:08;;;;;;;30.67;18.67;;;;;;;-4.38;100.00;97967.53;5050622;28;20144;-62
2022/12/14 06:42:53;;;;;;;32.20;19.33;;;;;;;-4.68;100.00;97980.03;5049581;28;20500;-62
2022/12/14 06:45:38;;;;;;;33.63;20.60;;;;;;;-4.66;100.00;97967.22;5039424;28;20037;-62
2022/12/14 06:48:22;;;;;;;30.38;19.30;;;;;;;-4.66;100.00;97969.78;5050150;28;20037;-62
2022/12/14 06:51:07;;;;;;;33.00;19.13;;;;;;;-4.65;100.00;97972.31;5048749;28;20565;-61
2022/12/14 06:53:55;;;;;;;33.45;19.08;;;;;;;-4.65;100.00;97967.19;5044412;28;20053;-62
2022/12/14 06:56:41;;;;;;;31.65;18.90;;;;;;;-4.76;100.00;97966.56;5049468;28;20055;-61
2022/12/14 06:59:26;;;;;;;34.53;20.45;;;;;;;-4.77;100.00;97960.63;5049490;28;20080;-63
2022/12/14 07:02:11;;;;;;;31.85;20.02;;;;;;;-4.80;100.00;97965.81;5050949;28;20103;-62
2022/12/14 07:04:56;;;;;;;35.28;21.08;;;;;;;-4.69;100.00;97965.59;5031051;28;20124;-61
2022/12/14 07:07:42;;;;;;;36.85;21.20;;;;;;;-4.84;100.00;97967.56;5048140;28;20044;-63
2022/12/14 07:10:26;;;;;;;34.30;20.70;;;;;;;-4.75;100.00;97970.81;5050227;28;20055;-63
2022/12/14 07:13:11;;;;;;;30.90;18.98;;;;;;;-4.73;100.00;97966.50;5048084;28;20076;-63
2022/12/14 07:15:57;;;;;;;36.65;19.80;;;;;;;-4.78;100.00;97945.31;5047449;28;20386;-63
2022/12/14 07:18:42;;;;;;;34.90;21.35;;;;;;;-4.77;100.00;97940.19;5050167;28;20059;-62
2022/12/14 07:21:28;;;;;;;39.60;20.92;;;;;;;-4.77;100.00;97940.19;5049869;28;20049;-62
2022/12/14 07:24:13;;;;;;;39.47;22.98;;;;;;;-4.72;100.00;97947.75;5049976;28;20457;-62
2022/12/14 07:26:59;;;;;;;34.08;20.88;;;;;;;-4.66;100.00;97931.44;5034677;28;20056;-65
2022/12/14 07:29:43;;;;;;;30.92;14.77;;;;;;;-4.60;100.00;97937.28;5048572;28;20041;-62
2022/12/14 07:32:28;;;;;;;34.85;16.40;;;;;;;-4.50;100.00;97927.69;5026434;28;20126;-63
2022/12/14 07:35:13;;;;;;;33.50;15.68;;;;;;;-4.59;100.00;97921.06;5047231;28;20112;-62
2022/12/14 07:37:57;;;;;;;32.10;16.48;;;;;;;-4.56;100.00;97930.41;5048577;28;20036;-64
2022/12/14 07:40:43;;;;;;;28.25;14.77;;;;;;;-4.58;100.00;97921.91;5048725;28;20120;-62
2022/12/14 07:43:27;;;;;;;30.05;15.70;;;;;;;-4.38;100.00;97925.75;5034210;28;20037;-62
2022/12/14 07:46:15;;;;;;;35.08;19.63;;;;;;;-4.29;100.00;97934.97;5047802;28;20047;-64
2022/12/14 07:49:02;;;;;;;35.22;20.23;;;;;;;-4.40;100.00;97938.59;5046780;28;20392;-62
2022/12/14 07:51:47;;;;;;;32.72;16.85;;;;;;;-4.45;100.00;97922.50;5048018;28;20051;-62
2022/12/14 07:54:31;;;;;;;34.03;16.40;;;;;;;-4.54;100.00;97925.25;5048289;28;20396;-63
2022/12/14 07:57:18;;;;;;;34.67;16.95;;;;;;;-4.43;100.00;97927.56;5047461;28;20049;-63
2022/12/14 08:00:03;;;;;;;32.13;15.40;;;;;;;-4.36;100.00;97929.97;5049304;28;20040;-62
2022/12/14 08:02:55;;;;;;;34.78;19.70;;;;;;;-4.11;100.00;97926.88;5043006;28;20404;-64
2022/12/14 08:05:40;;;;;;;33.58;19.58;;;;;;;-4.21;100.00;97927.97;5048936;28;20810;-65
2022/12/14 08:08:25;;;;;;;32.25;16.05;;;;;;;-4.24;100.00;97926.31;5048188;28;20488;-64
2022/12/14 08:11:10;;;;;;;30.27;18.23;;;;;;;-4.21;100.00;97933.09;5042900;28;20454;-63
2022/12/14 08:13:59;;;;;;;28.75;14.85;;;;;;;-4.21;100.00;97938.22;5048781;28;20063;-63
2022/12/14 08:16:44;;;;;;;37.47;19.88;;;;;;;-4.23;100.00;97943.34;5048975;28;20049;-61
2022/12/14 08:19:29;;;;;;;31.85;18.48;;;;;;;-3.98;100.00;97939.38;5048173;28;20049;-62
2022/12/14 08:22:14;;;;;;;31.98;16.17;;;;;;;-3.97;100.00;97935.97;5046900;28;20044;-62
2022/12/14 08:24:58;;;;;;;30.45;19.13;;;;;;;-4.07;100.00;97940.44;5046586;28;20128;-63
2022/12/14 08:27:43;;;;;;;32.92;18.48;;;;;;;-4.08;100.00;97939.59;5041480;28;20052;-63
2022/12/14 08:30:27;;;;;;;30.27;17.95;;;;;;;-4.10;100.00;97936.22;5048145;28;20045;-63
2022/12/14 08:33:12;;;;;;;31.50;18.92;;;;;;;-4.00;100.00;97936.88;5048406;28;20041;-63
2022/12/14 08:36:13;;;;;;;30.58;19.00;;;;;;;-3.90;100.00;97934.13;5047866;28;20094;-63
2022/12/14 08:39:01;;;;;;;33.33;20.97;;;;;;;-3.79;100.00;97944.09;5043332;28;20107;-62
2022/12/14 08:41:45;;;;;;;31.48;18.60;;;;;;;-3.80;100.00;97942.44;5045351;28;20307;-63
2022/12/14 08:44:30;;;;;;;33.83;20.10;;;;;;;-3.79;100.00;97944.09;5048197;28;20140;-61
2022/12/14 08:47:14;;;;;;;31.05;17.70;;;;;;;-3.65;100.00;97947.19;5048487;28;20049;-63
2022/12/14 08:49:59;;;;;;;33.45;19.35;;;;;;;-3.77;100.00;97947.47;5046434;28;20049;-63
2022/12/14 08:52:47;;;;;;;31.10;17.77;;;;;;;-3.75;100.00;97949.13;5047531;28;20055;-62
2022/12/14 08:55:32;;;;;;;31.27;18.67;;;;;;;-3.80;100.00;97942.44;5046521;28;20094;-64
2022/12/14 08:58:16;;;;;;;31.75;17.80;;;;;;;-3.63;100.00;97953.13;5042116;28;20049;-62
2022/12/14 09:01:04;;;;;;;30.23;17.67;;;;;;;-3.54;100.00;97961.47;5047496;28;20049;-64
2022/12/14 09:03:49;;;;;;;28.80;17.23;;;;;;;-3.37;100.00;97951.63;5047204;28;20048;-62
2022/12/14 09:06:37;;;;;;;30.50;18.58;;;;;;;-3.67;100.00;97955.78;5044275;28;20075;-62
2022/12/14 09:09:21;;;;;;;30.45;17.67;;;;;;;-3.49;100.00;97955.34;5047364;28;20055;-60
2022/12/14 09:12:07;;;;;;;28.60;17.67;;;;;;;-3.48;100.00;97957.00;5044654;28;20056;-60
2022/12/14 09:14:51;;;;;;;31.08;17.50;;;;;;;-3.53;100.00;97948.63;5043479;28;20040;-62
2022/12/14 09:17:36;;;;;;;29.83;18.02;;;;;;;-3.42;100.00;97950.91;5048444;28;20048;-61
2022/12/14 09:20:21;;;;;;;27.08;17.10;;;;;;;-3.35;100.00;97936.22;5031516;28;20048;-63
2022/12/14 09:23:06;;;;;;;25.35;15.60;;;;;;;-3.40;100.00;97931.22;5046054;28;20503;-61
2022/12/14 09:26:06;;;;;;;28.23;17.08;;;;;;;-3.28;100.00;97924.09;5042036;28;20124;-64
2022/12/14 09:28:54;;;;;;;31.65;18.50;;;;;;;-3.42;100.00;97919.31;5047973;28;20033;-66
2022/12/14 09:31:38;;;;;;;26.42;16.55;;;;;;;-3.46;100.00;97921.94;5032524;28;20041;-64
2022/12/14 09:34:24;;;;;;;26.42;16.55;;;;;;;-3.41;100.00;97903.91;5045127;28;20041;-64
2022/12/14 09:37:09;;;;;;;29.60;17.98;;;;;;;-3.22;100.00;97899.16;5048130;28;20154;-64
2022/12/14 09:39:54;;;;;;;31.73;18.02;;;;;;;-3.28;100.00;97896.75;5044301;28;20055;-65
2022/12/14 09:42:46;;;;;;;27.83;18.02;;;;;;;-3.27;100.00;97888.19;5047177;28;20557;-62
2022/12/14 09:45:32;;;;;;;;;;;;;;;-3.10;100.00;97887.72;5048226;28;20135;-63
2022/12/14 09:48:22;;;;;;;31.08;16.88;;;;;;;-3.13;100.00;97890.38;5047559;28;20031;-62
2022/12/14 09:51:13;;;;;;;26.20;16.45;;;;;;;-3.34;100.00;97887.50;5027394;28;20045;-62
2022/12/14 09:54:04;;;;;;;28.48;16.88;;;;;;;-3.52;100.00;97885.41;5045957;28;20078;-63
2022/12/14 09:56:49;;;;;;;29.08;15.90;;;;;;;-3.40;100.00;97867.19;5041349;28;20041;-63
2022/12/14 09:59:34;;;;;;;27.33;16.85;;;;;;;-3.42;100.00;97862.94;5047043;28;20142;-62
2022/12/14 10:02:28;;;;;;;28.40;17.02;;;;;;;-3.47;100.00;97884.41;5046120;28;20049;-61
2022/12/14 10:05:20;;;;;;;27.08;15.52;;;;;;;-3.28;100.00;97865.16;5042361;28;20041;-62
2022/12/14 10:08:14;;;;;;;25.65;16.30;;;;;;;-3.42;100.00;97865.50;5048873;28;20171;-62
2022/12/14 10:11:38;;;;;;;26.02;15.98;;;;;;;-3.24;100.00;97859.06;5050471;28;20068;-63
2022/12/14 10:14:41;;;;;;;24.80;15.60;;;;;;;-3.32;100.00;97853.31;5009162;28;20416;-63
2022/12/14 10:18:16;;;;;;;28.75;17.25;;;;;;;-3.19;100.00;97826.47;5014809;28;20050;-63
2022/12/14 10:21:12;;;;;;;24.33;16.00;;;;;;;-3.24;100.00;97838.56;4989151;28;20046;-64
2022/12/14 10:24:01;;;;;;;24.77;16.15;;;;;;;-3.25;100.00;97824.09;4989355;28;20169;-65
2022/12/14 10:26:52;;;;;;;26.25;16.95;;;;;;;-3.20;100.00;97818.84;4987980;28;20564;-67
2022/12/14 10:29:40;;;;;;;26.23;16.52;;;;;;;-3.24;100.00;97826.59;4989905;28;20046;-65
2022/12/14 10:32:33;;;;;;;27.80;17.27;;;;;;;-3.31;100.00;97816.56;4985533;28;20563;-66
2022/12/14 10:35:48;;;;;;;24.35;15.93;;;;;;;-3.05;100.00;97820.13;4990232;28;20573;-64
2022/12/14 10:38:42;;;;;;;25.77;16.55;;;;;;;-3.19;100.00;97818.78;4985741;28;20058;-64
2022/12/14 10:42:10;;;;;;;26.85;15.75;;;;;;;-3.18;100.00;97814.50;4984705;28;20061;-65
2022/12/14 10:45:09;;;;;;;26.13;15.38;;;;;;;-3.13;100.00;97802.38;4892811;29;20056;-63
2022/12/14 10:48:23;;;;;;;26.25;16.85;;;;;;;-3.26;100.00;97796.75;4893116;29;20045;-63
2022/12/14 10:51:16;;;;;;;26.10;15.45;;;;;;;-2.81;100.00;97805.78;4868851;29;20083;-62
2022/12/14 10:54:19;;;;;;;25.25;15.80;;;;;;;-2.89;99.72;97788.03;4882013;29;20893;-64
2022/12/14 10:57:04;;;;;;;22.23;14.35;;;;;;;-2.84;99.72;97782.78;4909987;29;20056;-67
2022/12/14 10:59:49;;;;;;;25.40;15.18;;;;;;;-2.89;99.50;97780.34;4909790;29;20048;-63
2022/12/14 11:02:39;;;;;;;22.35;13.68;;;;;;;-2.83;99.43;97784.47;4904181;29;20093;-64
2022/12/14 11:06:01;;;;;;;24.27;14.43;;;;;;;-2.80;99.04;97775.81;4909612;29;20052;-64
2022/12/14 11:08:47;;;;;;;22.30;14.18;;;;;;;-2.76;97.95;97774.84;4903803;29;20048;-64
2022/12/14 11:11:32;;;;;;;22.35;13.30;;;;;;;-2.64;97.65;97753.09;4911389;29;20055;-63
2022/12/14 11:14:21;;;;;;;22.10;13.73;;;;;;;-2.69;97.48;97763.50;4912847;29;20756;-64
2022/12/14 11:17:28;;;;;;;19.45;13.50;;;;;;;-3.16;98.83;97739.25;4906600;29;20140;-64
2022/12/14 11:20:21;;;;;;;20.45;13.27;;;;;;;-3.12;99.56;97732.31;4939097;28;20541;-65
2022/12/14 11:23:23;;;;;;;22.30;14.88;;;;;;;-3.35;100.00;97723.59;4966186;28;20057;-64
2022/12/14 11:26:25;;;;;;;23.40;15.20;;;;;;;-3.25;100.00;97721.59;4957768;28;20057;-65
2022/12/14 11:29:38;;;;;;;24.08;14.48;;;;;;;-3.28;100.00;97716.56;5045163;28;20087;-64
2022/12/14 11:32:24;;;;;;;24.17;16.15;;;;;;;-3.15;100.00;97722.16;5048534;28;20041;-64
2022/12/14 11:35:15;;;;;;;21.60;14.15;;;;;;;-3.10;100.00;97697.25;5047027;28;20053;-65
2022/12/14 11:38:00;;;;;;;26.80;14.27;;;;;;;-2.88;99.47;97710.25;5048164;28;20056;-65
2022/12/14 11:40:47;;;;;;;23.33;14.23;;;;;;;-3.15;99.60;97704.22;5047120;28;20115;-64
2022/12/14 11:43:39;;;;;;;22.52;14.40;;;;;;;-2.99;99.58;97704.59;5047271;28;20052;-64
2022/12/14 11:46:40;;;;;;;21.73;14.52;;;;;;;-3.15;99.65;97684.53;5047785;28;20040;-63
2022/12/14 11:49:50;;;;;;;23.10;15.10;;;;;;;-3.12;99.71;97694.69;5048081;28;20045;-63
2022/12/14 11:52:37;;;;;;;19.67;13.15;;;;;;;-2.77;99.06;97691.09;5047450;28;20115;-64
2022/12/14 11:55:25;;;;;;;22.00;14.02;;;;;;;-3.07;99.33;97683.50;5046260;28;20396;-63
2022/12/14 11:58:21;;;;;;;22.77;13.07;;;;;;;-2.98;99.67;97686.63;5047389;28;20045;-64
2022/12/14 12:01:16;;;;;;;19.70;13.80;;;;;;;-3.13;99.42;97693.03;5049250;28;20063;-64
2022/12/14 12:04:02;;;;;;;24.25;14.95;;;;;;;-3.03;99.23;97669.69;5048084;28;20048;-63
2022/12/14 12:06:47;;;;;;;22.90;14.18;;;;;;;-2.99;99.08;97702.84;5046401;28;20477;-62
2022/12/14 12:09:33;;;;;;;24.17;14.65;;;;;;;-2.93;98.87;97663.41;5049252;28;20071;-62
2022/12/14 12:12:22;;;;;;;21.27;13.95;;;;;;;-2.96;99.28;97663.50;5048371;28;20056;-61
2022/12/14 12:15:16;;;;;;;22.02;13.88;;;;;;;-2.96;99.24;97658.38;5045877;28;20069;-62
2022/12/14 12:18:07;;;;;;;21.15;13.00;;;;;;;-2.81;98.87;97645.94;5047755;28;20091;-62
2022/12/14 12:20:58;;;;;;;21.58;15.43;;;;;;;-3.05;99.28;97633.03;5046961;28;20110;-64
2022/12/14 12:23:56;;;;;;;21.55;14.23;;;;;;;-2.91;99.28;97646.25;5047235;28;20167;-62
2022/12/14 12:26:57;;;;;;;21.10;13.45;;;;;;;-2.94;98.90;97625.00;5064471;28;20099;-60
2022/12/14 12:30:34;;;;;;;20.23;14.47;;;;;;;-2.84;99.94;97628.94;5045546;28;20403;-65
2022/12/14 12:33:32;;;;;;;21.27;14.65;;;;;;;-2.82;99.56;97628.91;5031470;28;20040;-62
2022/12/14 12:36:21;;;;;;;23.05;13.73;;;;;;;-2.72;98.67;97620.00;5045636;28;20053;-62
2022/12/14 12:39:20;;;;;;;22.08;13.93;;;;;;;-2.60;98.06;97617.06;5031038;28;20037;-63
2022/12/14 12:42:37;;;;;;;21.55;14.40;;;;;;;-2.83;98.07;97615.22;5045685;28;20152;-63
2022/12/14 12:45:29;;;;;;;22.40;15.02;;;;;;;-2.81;98.46;97594.66;5009329;28;20520;-62
2022/12/14 12:48:33;;;;;;;;;;;;;;;-3.05;99.63;97607.41;5024984;28;20766;-65
2022/12/14 12:51:22;;;;;;;21.25;14.43;;;;;;;-2.85;99.13;97607.59;5025306;28;19925;-62
2022/12/14 12:54:14;;;;;;;25.25;14.32;;;;;;;-2.87;99.10;97588.84;5023970;28;20125;-61
2022/12/14 12:57:02;;;;;;;22.55;14.35;;;;;;;-2.67;98.67;97589.06;5024659;28;20045;-60
2022/12/14 12:59:55;;;;;;;24.27;14.77;;;;;;;-2.81;99.26;97581.84;5025673;28;20548;-60
2022/12/14 13:02:53;;;;;;;20.40;13.75;;;;;;;-2.59;98.41;97587.09;4981607;28;20472;-62
2022/12/14 13:05:40;;;;;;;23.70;14.80;;;;;;;-2.83;99.28;97575.94;5025212;28;20049;-61
2022/12/14 13:08:30;;;;;;;23.45;14.73;;;;;;;-2.81;99.98;97580.13;5025648;28;20144;-63
2022/12/14 13:11:21;;;;;;;24.05;14.57;;;;;;;-2.72;99.65;97584.94;5019080;28;20080;-62
2022/12/14 13:14:30;;;;;;;26.02;14.48;;;;;;;-2.60;98.63;97557.22;5011958;28;20135;-64